Time;durP1;ratioP1;P1;durP2;ratioP2;P2;SDS_P1;SDS_P2;PMS_P1;PMS_P2;Temp;Humidity;BMP_temperature;BMP_pressure;BME280_temperature;BME280_humidity;BME280_pressure;Samples;Min_cycle;Max_cycle;Signal;HPM_P1;HPM_P2
2021/05/02 00:00:24;;;;;;;23.05;10.73;;;6.80;94.50;;;;;;5072730;28;20055;-75
2021/05/02 00:02:50;;;;;;;23.98;11.52;;;6.80;94.40;;;;;;5064193;28;20036;-75
2021/05/02 00:05:19;;;;;;;29.35;11.82;;;6.80;94.80;;;;;;5068881;28;20035;-75
2021/05/02 00:07:45;;;;;;;23.90;11.73;;;6.90;94.50;;;;;;5064925;28;20453;-75
2021/05/02 00:10:13;;;;;;;25.10;10.52;;;6.90;94.50;;;;;;5064457;28;20037;-75
2021/05/02 00:12:39;;;;;;;20.10;10.30;;;6.90;94.40;;;;;;5047056;28;20036;-75
2021/05/02 00:15:16;;;;;;;20.75;10.23;;;6.90;94.40;;;;;;5069412;28;20032;-75
2021/05/02 00:17:44;;;;;;;23.55;10.43;;;6.90;94.40;;;;;;5063279;28;20487;-75
2021/05/02 00:20:11;;;;;;;20.77;11.00;;;6.90;94.40;;;;;;5062420;28;20079;-75
2021/05/02 00:22:38;;;;;;;28.33;11.52;;;7.00;94.40;;;;;;5064485;28;20038;-74
2021/05/02 00:25:08;;;;;;;25.48;11.20;;;7.00;94.40;;;;;;5063860;28;20039;-75
2021/05/02 00:27:35;;;;;;;22.25;9.98;;;7.00;94.40;;;;;;5071085;28;20032;-75
2021/05/02 00:30:03;;;;;;;21.77;9.85;;;7.00;94.40;;;;;;5059259;28;20028;-76
2021/05/02 00:32:29;;;;;;;19.92;8.43;;;7.00;94.30;;;;;;5061696;28;20032;-75
2021/05/02 00:34:56;;;;;;;18.85;8.32;;;7.00;94.30;;;;;;5062039;28;20028;-75
2021/05/02 00:37:22;;;;;;;20.75;8.45;;;7.00;94.40;;;;;;5061568;28;20046;-76
2021/05/02 00:39:49;;;;;;;21.92;8.25;;;7.00;94.40;;;;;;5064289;28;20106;-75
2021/05/02 00:42:20;;;;;;;18.98;7.53;;;7.00;94.40;;;;;;5061122;28;20028;-75
2021/05/02 00:44:49;;;;;;;18.65;7.40;;;7.00;94.30;;;;;;5061250;28;20064;-75
2021/05/02 00:47:16;;;;;;;23.55;7.00;;;7.00;94.30;;;;;;5062891;28;20432;-75
2021/05/02 00:49:57;;;;;;;18.15;7.07;;;7.00;94.30;;;;;;5066262;28;20051;-75
2021/05/02 00:52:43;;;;;;;19.23;7.57;;;7.00;94.30;;;;;;5065133;28;20194;-75
2021/05/02 00:55:10;;;;;;;19.98;7.18;;;7.00;94.30;;;;;;5033819;28;20117;-74
2021/05/02 00:58:01;;;;;;;18.95;6.93;;;6.90;94.30;;;;;;5070339;28;20039;-74
2021/05/02 01:00:33;;;;;;;21.10;6.75;;;6.90;94.30;;;;;;5081503;28;20043;-73
2021/05/02 01:03:01;;;;;;;17.20;7.32;;;6.90;94.30;;;;;;5065892;28;20036;-74
2021/05/02 01:05:32;;;;;;;25.67;7.10;;;6.90;94.30;;;;;;5059946;28;20115;-74
2021/05/02 01:07:59;;;;;;;22.02;7.07;;;6.90;94.40;;;;;;5068549;28;20033;-74
2021/05/02 01:10:27;;;;;;;19.35;7.30;;;6.90;94.40;;;;;;5066031;28;20316;-74
2021/05/02 01:12:57;;;;;;;18.75;6.80;;;6.90;94.40;;;;;;5044600;28;20506;-74
2021/05/02 01:15:31;;;;;;;25.08;7.63;;;6.90;94.40;;;;;;5060208;28;20040;-74
2021/05/02 01:18:05;;;;;;;21.50;7.45;;;7.00;94.40;;;;;;5061931;28;20040;-74
2021/05/02 01:20:36;;;;;;;24.70;8.05;;;7.00;94.50;;;;;;5063557;28;20031;-73
2021/05/02 01:23:08;;;;;;;21.77;7.78;;;7.00;94.40;;;;;;5062638;28;20136;-74
2021/05/02 01:25:35;;;;;;;19.55;7.47;;;7.00;94.40;;;;;;5072266;28;20024;-74
2021/05/02 01:28:03;;;;;;;24.40;8.38;;;7.00;94.40;;;;;;5062194;28;20037;-72
2021/05/02 01:30:30;;;;;;;26.33;8.60;;;7.00;94.40;;;;;;5061772;28;20113;-74
2021/05/02 01:32:56;;;;;;;17.33;8.07;;;7.00;94.40;;;;;;5057184;28;20078;-74
2021/05/02 01:35:22;;;;;;;23.13;8.13;;;7.00;94.40;;;;;;5046421;28;20048;-74
2021/05/02 01:37:50;;;;;;;25.08;8.65;;;7.00;94.40;;;;;;5064161;28;20032;-73
2021/05/02 01:40:18;;;;;;;18.05;7.97;;;7.00;94.40;;;;;;5060783;28;20490;-73
2021/05/02 01:42:45;;;;;;;17.77;7.78;;;7.00;94.50;;;;;;5062410;28;20037;-72
2021/05/02 01:45:12;;;;;;;22.73;8.45;;;7.00;94.50;;;;;;5074675;28;20048;-73
2021/05/02 01:47:43;;;;;;;22.48;8.40;;;7.00;94.50;;;;;;5069543;28;20316;-75
2021/05/02 01:50:12;;;;;;;23.13;8.13;;;7.00;94.50;;;;;;5077146;28;20055;-73
2021/05/02 01:52:47;;;;;;;18.98;8.70;;;7.00;94.50;;;;;;5066000;28;20039;-73
2021/05/02 01:55:15;;;;;;;23.08;8.43;;;7.00;94.50;;;;;;5066751;28;20067;-73
2021/05/02 01:57:41;;;;;;;25.55;9.00;;;7.00;94.50;;;;;;5057704;28;20033;-74
2021/05/02 02:00:13;;;;;;;21.80;9.20;;;7.00;94.50;;;;;;5064711;28;20540;-74
2021/05/02 02:02:40;;;;;;;24.48;9.32;;;7.00;94.50;;;;;;5061411;28;20040;-73
2021/05/02 02:05:07;;;;;;;24.10;9.82;;;7.00;94.50;;;;;;5056537;28;20042;-74
2021/05/02 02:07:33;;;;;;;21.50;9.43;;;6.90;94.50;;;;;;5061505;28;20417;-74
2021/05/02 02:09:59;;;;;;;26.13;10.20;;;6.90;94.50;;;;;;5076988;28;20055;-73
2021/05/02 02:12:26;;;;;;;24.45;11.60;;;6.90;94.60;;;;;;5065093;28;20063;-72
2021/05/02 02:14:53;;;;;;;22.23;10.05;;;6.90;94.70;;;;;;5061270;28;20064;-73
2021/05/02 02:17:20;;;;;;;19.83;10.32;;;6.90;94.70;;;;;;5059885;28;20043;-74
2021/05/02 02:19:47;;;;;;;28.20;9.82;;;6.90;94.70;;;;;;5060357;28;20502;-74
2021/05/02 02:22:14;;;;;;;26.88;11.02;;;6.90;94.80;;;;;;5058872;28;20146;-73
2021/05/02 02:24:53;;;;;;;22.67;10.35;;;6.90;94.80;;;;;;5058896;28;20497;-74
2021/05/02 02:27:20;;;;;;;24.83;10.48;;;6.90;94.90;;;;;;5061188;28;20257;-74
2021/05/02 02:29:48;;;;;;;17.52;9.73;;;6.90;94.90;;;;;;5062749;28;20037;-74
2021/05/02 02:32:17;;;;;;;19.92;9.93;;;6.80;94.90;;;;;;5057297;28;20489;-72
2021/05/02 02:34:45;;;;;;;20.25;9.85;;;6.80;94.90;;;;;;5064669;28;20543;-74
2021/05/02 02:37:13;;;;;;;22.50;10.02;;;6.80;95.00;;;;;;5057787;28;20033;-72
2021/05/02 02:39:48;;;;;;;19.35;9.48;;;6.90;95.00;;;;;;5068446;28;20043;-74
2021/05/02 02:42:15;;;;;;;28.33;9.70;;;6.80;95.00;;;;;;5058683;28;20086;-74
2021/05/02 02:44:55;;;;;;;19.77;9.48;;;6.80;95.00;;;;;;5066360;28;20036;-72
2021/05/02 02:47:25;;;;;;;25.00;9.57;;;6.80;95.10;;;;;;5077263;28;20144;-74
2021/05/02 02:49:56;;;;;;;17.50;8.50;;;6.80;95.10;;;;;;5061603;28;20548;-74
2021/05/02 02:52:25;;;;;;;23.73;8.85;;;6.80;95.10;;;;;;5061935;28;20036;-72
2021/05/02 02:55:18;;;;;;;22.98;8.80;;;6.80;95.20;;;;;;5059250;28;20062;-73
2021/05/02 02:57:51;;;;;;;22.38;9.15;;;6.80;95.20;;;;;;5060903;28;20055;-72
2021/05/02 03:00:23;;;;;;;21.35;8.93;;;6.80;95.20;;;;;;5064366;28;20328;-74
2021/05/02 03:02:51;;;;;;;19.70;8.25;;;6.80;95.30;;;;;;5059239;28;20089;-74
2021/05/02 03:05:22;;;;;;;19.65;8.38;;;6.80;95.30;;;;;;5063428;28;20047;-72
2021/05/02 03:07:50;;;;;;;19.73;7.47;;;6.80;95.30;;;;;;5059972;28;20036;-74
2021/05/02 03:10:16;;;;;;;17.25;6.90;;;6.80;95.30;;;;;;5063786;28;20119;-73
2021/05/02 03:12:43;;;;;;;12.20;5.60;;;6.80;95.30;;;;;;5062818;28;20040;-73
2021/05/02 03:15:10;;;;;;;14.00;5.88;;;6.80;95.30;;;;;;5048386;28;20036;-74
2021/05/02 03:17:38;;;;;;;11.50;4.53;;;6.70;95.20;;;;;;5065571;28;20040;-74
2021/05/02 03:20:12;;;;;;;11.85;4.93;;;6.70;95.10;;;;;;5062564;28;20036;-72
2021/05/02 03:22:49;;;;;;;12.63;4.45;;;6.70;95.10;;;;;;5059694;28;20482;-73
2021/05/02 03:25:22;;;;;;;13.10;4.10;;;6.70;95.10;;;;;;5064709;28;20037;-74
2021/05/02 03:27:59;;;;;;;13.60;4.28;;;6.70;95.00;;;;;;5062633;28;20044;-74
2021/05/02 03:30:26;;;;;;;9.52;3.90;;;6.70;95.00;;;;;;5059839;28;20094;-73
2021/05/02 03:32:55;;;;;;;10.68;4.00;;;6.60;95.00;;;;;;5060444;28;20046;-74
2021/05/02 03:35:24;;;;;;;11.60;3.53;;;6.60;94.90;;;;;;5057423;28;20511;-74
2021/05/02 03:38:21;;;;;;;12.02;3.50;;;6.60;95.00;;;;;;5062604;28;20154;-73
2021/05/02 03:40:48;;;;;;;9.38;3.40;;;6.60;94.90;;;;;;5035829;28;20044;-73
2021/05/02 03:43:14;;;;;;;10.68;3.33;;;6.60;94.90;;;;;;5074559;28;20162;-74
2021/05/02 03:45:40;;;;;;;11.65;3.35;;;6.60;94.90;;;;;;5077573;28;20053;-74
2021/05/02 03:48:07;;;;;;;9.77;2.58;;;6.60;94.80;;;;;;5073363;28;20048;-74
2021/05/02 03:50:33;;;;;;;9.38;3.75;;;6.60;94.80;;;;;;5081600;28;20046;-73
2021/05/02 03:52:59;;;;;;;6.68;2.53;;;6.60;94.70;;;;;;5073979;28;20291;-74
2021/05/02 03:55:25;;;;;;;6.95;2.85;;;6.60;94.70;;;;;;5073639;28;20036;-74
2021/05/02 03:57:51;;;;;;;6.97;2.60;;;6.60;94.60;;;;;;5091425;28;20029;-73
2021/05/02 04:00:17;;;;;;;14.55;2.80;;;6.50;94.60;;;;;;5068468;28;20419;-74
2021/05/02 04:02:43;;;;;;;9.65;3.10;;;6.50;94.50;;;;;;5073506;28;20033;-74
2021/05/02 04:05:09;;;;;;;8.80;2.72;;;6.50;94.40;;;;;;5066411;28;20066;-73
2021/05/02 04:07:35;;;;;;;5.75;2.58;;;6.50;94.30;;;;;;5067311;28;20114;-74
2021/05/02 04:10:01;;;;;;;7.50;2.42;;;6.50;94.20;;;;;;5053826;28;20143;-74
2021/05/02 04:12:27;;;;;;;9.77;2.60;;;6.50;94.10;;;;;;5060961;28;20457;-74
2021/05/02 04:14:53;;;;;;;8.90;2.35;;;6.50;94.00;;;;;;5061745;28;20037;-74
2021/05/02 04:17:18;;;;;;;8.77;2.60;;;6.50;94.00;;;;;;5063689;28;20445;-74
2021/05/02 04:19:47;;;;;;;10.15;2.22;;;6.50;93.80;;;;;;5063271;28;20536;-74
2021/05/02 04:22:15;;;;;;;10.75;2.13;;;6.50;93.80;;;;;;5065475;28;20035;-74
2021/05/02 04:24:44;;;;;;;7.65;2.22;;;6.50;93.80;;;;;;5066015;28;20036;-74
2021/05/02 04:27:11;;;;;;;10.80;2.45;;;6.50;93.70;;;;;;5062857;28;20071;-75
2021/05/02 04:29:37;;;;;;;6.18;2.33;;;6.50;93.60;;;;;;5060758;28;20475;-75
2021/05/02 04:32:04;;;;;;;5.43;2.28;;;6.50;93.50;;;;;;5057281;28;20129;-74
2021/05/02 04:34:30;;;;;;;6.15;2.10;;;6.50;93.40;;;;;;5092935;28;20051;-74
2021/05/02 04:36:57;;;;;;;5.45;1.92;;;6.50;93.40;;;;;;5058064;28;20078;-75
2021/05/02 04:39:24;;;;;;;11.05;2.35;;;6.50;93.50;;;;;;5059993;28;20098;-74
2021/05/02 04:41:53;;;;;;;8.52;2.20;;;6.50;93.30;;;;;;5064705;28;20106;-74
2021/05/02 04:44:20;;;;;;;9.73;1.95;;;6.50;93.20;;;;;;5063575;28;20119;-75
2021/05/02 04:46:46;;;;;;;9.18;2.28;;;6.50;93.30;;;;;;5062486;28;21033;-73
2021/05/02 04:49:12;;;;;;;13.32;2.30;;;6.40;93.20;;;;;;5059454;28;20059;-74
2021/05/02 04:51:39;;;;;;;10.60;2.22;;;6.50;93.20;;;;;;5059824;28;20037;-74
2021/05/02 04:54:07;;;;;;;9.80;2.25;;;6.40;93.00;;;;;;5064171;28;20059;-74
2021/05/02 04:56:33;;;;;;;6.60;2.50;;;6.40;93.00;;;;;;5059546;28;20064;-73
2021/05/02 04:59:01;;;;;;;4.80;2.30;;;6.40;93.00;;;;;;5061862;28;20036;-74
2021/05/02 05:01:27;;;;;;;10.77;2.28;;;6.40;92.90;;;;;;5072609;28;20043;-74
2021/05/02 05:03:55;;;;;;;6.72;2.58;;;6.40;92.80;;;;;;5061097;28;20036;-74
2021/05/02 05:06:21;;;;;;;6.97;2.45;;;6.40;92.90;;;;;;5060732;28;20036;-75
2021/05/02 05:08:48;;;;;;;9.55;2.13;;;6.30;92.90;;;;;;5072326;28;20082;-74
2021/05/02 05:11:14;;;;;;;8.82;2.60;;;6.30;92.80;;;;;;5062589;28;20724;-74
2021/05/02 05:13:39;;;;;;;9.52;2.50;;;6.40;92.90;;;;;;5066287;28;20035;-74
2021/05/02 05:16:05;;;;;;;5.63;2.13;;;6.40;92.90;;;;;;5058805;28;20033;-74
2021/05/02 05:18:31;;;;;;;7.93;2.20;;;6.40;93.00;;;;;;5059923;28;20032;-74
2021/05/02 05:20:57;;;;;;;7.15;2.63;;;6.50;93.00;;;;;;5060295;28;20097;-74
2021/05/02 05:23:23;;;;;;;5.82;2.15;;;6.50;92.90;;;;;;5059231;28;20036;-74
2021/05/02 05:25:49;;;;;;;8.40;2.45;;;6.50;92.90;;;;;;5060548;28;20095;-74
2021/05/02 05:28:15;;;;;;;14.80;3.42;;;6.60;92.90;;;;;;5063788;28;20550;-75
2021/05/02 05:30:41;;;;;;;7.55;3.10;;;6.60;92.90;;;;;;5065341;28;20032;-75
2021/05/02 05:33:08;;;;;;;9.30;3.33;;;6.60;92.90;;;;;;5066707;28;20843;-74
2021/05/02 05:35:36;;;;;;;7.75;2.75;;;6.70;92.90;;;;;;5067168;27;20562;-74
2021/05/02 05:38:02;;;;;;;8.85;3.15;;;6.70;92.90;;;;;;5059230;28;20048;-74
2021/05/02 05:40:28;;;;;;;12.82;3.40;;;6.70;92.80;;;;;;5060461;28;20033;-74
2021/05/02 05:42:55;;;;;;;8.52;2.88;;;6.80;92.70;;;;;;5063341;28;20902;-74
2021/05/02 05:45:22;;;;;;;6.60;3.25;;;6.80;92.60;;;;;;5062055;28;20373;-74
2021/05/02 05:47:49;;;;;;;8.00;3.28;;;6.80;92.50;;;;;;5069684;28;20047;-74
2021/05/02 05:50:16;;;;;;;6.40;3.38;;;6.90;92.50;;;;;;5083176;28;20028;-74
2021/05/02 05:52:45;;;;;;;9.23;3.25;;;6.90;92.50;;;;;;5067555;28;20044;-74
2021/05/02 05:55:12;;;;;;;8.05;3.20;;;7.00;92.30;;;;;;5073690;28;20028;-74
2021/05/02 05:57:38;;;;;;;7.82;2.65;;;7.00;92.00;;;;;;5065942;28;20308;-74
2021/05/02 06:00:11;;;;;;;9.73;2.97;;;7.10;92.10;;;;;;5073064;28;20043;-75
2021/05/02 06:02:37;;;;;;;7.10;2.83;;;7.10;91.90;;;;;;5071891;28;20036;-74
2021/05/02 06:05:04;;;;;;;5.53;2.70;;;7.10;92.00;;;;;;5074449;28;20040;-75
2021/05/02 06:07:30;;;;;;;10.60;3.10;;;7.20;91.90;;;;;;5062375;28;20518;-74
2021/05/02 06:09:56;;;;;;;9.52;2.85;;;7.20;92.00;;;;;;5062807;28;20470;-74
2021/05/02 06:12:21;;;;;;;14.13;2.78;;;7.30;91.80;;;;;;5084589;28;20448;-75
2021/05/02 06:14:47;;;;;;;6.95;2.70;;;7.30;91.70;;;;;;5080979;28;20078;-74
2021/05/02 06:17:13;;;;;;;5.30;2.42;;;7.30;91.60;;;;;;5077060;28;20029;-75
2021/05/02 06:19:39;;;;;;;9.05;2.90;;;7.30;91.60;;;;;;5078704;28;20072;-74
2021/05/02 06:22:05;;;;;;;13.05;3.47;;;7.30;91.80;;;;;;5068748;28;20108;-74
2021/05/02 06:24:31;;;;;;;7.35;2.92;;;7.20;91.50;;;;;;5071934;28;20111;-74
2021/05/02 06:26:57;;;;;;;8.50;2.72;;;7.20;91.50;;;;;;5069328;28;20064;-73
2021/05/02 06:29:23;;;;;;;10.27;3.20;;;7.30;91.70;;;;;;5073581;28;20062;-73
2021/05/02 06:31:49;;;;;;;10.52;3.08;;;7.40;91.60;;;;;;5072441;28;20214;-74
2021/05/02 06:34:14;;;;;;;10.35;2.88;;;7.40;91.50;;;;;;5078342;28;20029;-73
2021/05/02 06:36:41;;;;;;;6.95;2.95;;;7.40;91.40;;;;;;5077379;28;20032;-75
2021/05/02 06:39:08;;;;;;;8.27;3.00;;;7.40;91.20;;;;;;5069216;28;20067;-74
2021/05/02 06:41:37;;;;;;;7.45;2.40;;;7.30;91.30;;;;;;5068980;28;20111;-74
2021/05/02 06:44:03;;;;;;;11.05;3.25;;;7.30;91.30;;;;;;5072960;28;20047;-74
2021/05/02 06:46:29;;;;;;;7.85;3.00;;;7.40;91.30;;;;;;5078286;28;20028;-75
2021/05/02 06:49:03;;;;;;;9.38;3.03;;;7.50;91.20;;;;;;5064415;28;20024;-73
2021/05/02 06:51:30;;;;;;;7.60;2.63;;;7.60;91.10;;;;;;5073976;28;20043;-75
2021/05/02 06:53:56;;;;;;;5.88;2.08;;;7.80;91.00;;;;;;5074290;28;20036;-74
2021/05/02 06:56:24;;;;;;;4.38;1.42;;;7.90;90.80;;;;;;5073540;28;20050;-74
2021/05/02 06:58:53;;;;;;;4.97;1.90;;;7.90;90.20;;;;;;5092215;28;20040;-74
2021/05/02 07:01:19;;;;;;;4.55;1.80;;;8.00;90.00;;;;;;5057464;28;20095;-74
2021/05/02 07:03:45;;;;;;;6.10;2.00;;;7.90;90.00;;;;;;5076135;28;20342;-73
2021/05/02 07:06:11;;;;;;;2.10;1.60;;;7.90;90.10;;;;;;5072246;28;20564;-74
2021/05/02 07:08:37;;;;;;;4.95;1.80;;;7.90;90.00;;;;;;5069698;28;20037;-74
2021/05/02 07:11:03;;;;;;;7.18;1.98;;;7.90;89.50;;;;;;5077909;28;20032;-74
2021/05/02 07:13:30;;;;;;;6.75;1.98;;;8.00;90.00;;;;;;5077557;28;20032;-74
2021/05/02 07:15:59;;;;;;;3.53;1.88;;;8.00;89.40;;;;;;5081887;28;20036;-73
2021/05/02 07:18:28;;;;;;;3.78;1.60;;;8.00;89.00;;;;;;5081045;28;20036;-74
2021/05/02 07:20:54;;;;;;;5.30;1.77;;;8.10;89.40;;;;;;5076121;28;20029;-74
2021/05/02 07:23:20;;;;;;;4.55;1.83;;;8.20;88.70;;;;;;5058822;28;20560;-74
2021/05/02 07:25:46;;;;;;;5.80;2.17;;;8.30;88.80;;;;;;5077103;28;20040;-74
2021/05/02 07:28:11;;;;;;;7.00;2.35;;;8.40;88.80;;;;;;5051172;28;20499;-75
2021/05/02 07:30:37;;;;;;;3.40;1.95;;;8.60;89.10;;;;;;5075320;28;20115;-73
2021/05/02 07:33:03;;;;;;;3.53;1.73;;;8.80;88.30;;;;;;5067919;28;20044;-74
2021/05/02 07:35:30;;;;;;;8.27;1.85;;;8.90;87.80;;;;;;5077400;28;20063;-74
2021/05/02 07:37:56;;;;;;;4.22;2.00;;;9.00;87.60;;;;;;5071848;28;20036;-74
2021/05/02 07:40:22;;;;;;;5.72;2.10;;;9.10;87.60;;;;;;5098525;28;20054;-74
2021/05/02 07:42:48;;;;;;;6.05;2.13;;;9.00;86.80;;;;;;5083792;28;20031;-74
2021/05/02 07:45:14;;;;;;;4.82;2.33;;;8.90;86.80;;;;;;5068778;28;20037;-74
2021/05/02 07:47:40;;;;;;;5.38;2.33;;;8.80;87.70;;;;;;5070661;28;20569;-74
2021/05/02 07:50:07;;;;;;;7.88;2.42;;;8.80;87.90;;;;;;5075194;28;20028;-74
2021/05/02 07:52:34;;;;;;;3.35;1.67;;;8.70;88.30;;;;;;5084917;28;20062;-75
2021/05/02 07:54:59;;;;;;;3.38;2.10;;;8.60;88.50;;;;;;5082031;28;20025;-75
2021/05/02 07:57:25;;;;;;;6.38;2.10;;;8.50;88.60;;;;;;5087164;28;20040;-76
2021/05/02 07:59:52;;;;;;;8.82;2.30;;;8.30;88.90;;;;;;5074671;28;20123;-74
2021/05/02 08:02:18;;;;;;;4.40;2.50;;;8.10;89.50;;;;;;5075354;28;20047;-74
2021/05/02 08:04:45;;;;;;;4.68;2.65;;;7.90;90.10;;;;;;5085715;28;20037;-75
2021/05/02 08:07:11;;;;;;;8.10;2.75;;;7.80;90.60;;;;;;5072230;28;20043;-76
2021/05/02 08:09:37;;;;;;;6.10;2.35;;;7.70;90.80;;;;;;5080123;28;20150;-74
2021/05/02 08:12:04;;;;;;;7.90;2.65;;;7.60;90.80;;;;;;5082694;28;20589;-74
2021/05/02 08:14:30;;;;;;;6.85;2.72;;;7.50;90.90;;;;;;5074237;28;20028;-74
2021/05/02 08:16:56;;;;;;;5.45;2.40;;;7.50;91.10;;;;;;5077667;28;20028;-75
2021/05/02 08:19:23;;;;;;;8.38;2.75;;;7.60;91.00;;;;;;5075779;28;20037;-74
2021/05/02 08:21:49;;;;;;;7.75;3.17;;;7.70;91.10;;;;;;5074846;28;20051;-76
2021/05/02 08:24:15;;;;;;;7.82;2.90;;;8.00;91.20;;;;;;5065179;28;20111;-76
2021/05/02 08:26:41;;;;;;;4.82;2.25;;;8.10;90.80;;;;;;5076376;28;20512;-75
2021/05/02 08:29:07;;;;;;;7.20;2.55;;;8.40;90.30;;;;;;5065677;28;20044;-75
2021/05/02 08:31:33;;;;;;;5.10;2.35;;;8.50;90.20;;;;;;5079820;28;20040;-74
2021/05/02 08:33:59;;;;;;;6.65;2.22;;;8.70;90.20;;;;;;5071773;28;20035;-74
2021/05/02 08:36:25;;;;;;;7.82;2.10;;;8.90;89.20;;;;;;5085947;28;20044;-73
2021/05/02 08:38:51;;;;;;;10.20;2.33;;;9.10;87.80;;;;;;5075570;28;20036;-73
2021/05/02 08:41:18;;;;;;;4.05;1.77;;;9.20;86.80;;;;;;5083256;28;20038;-74
2021/05/02 08:43:49;;;;;;;5.50;2.13;;;9.10;84.90;;;;;;5084503;28;20039;-74
2021/05/02 08:46:15;;;;;;;7.97;1.98;;;9.00;84.60;;;;;;5075581;28;20818;-73
2021/05/02 08:48:41;;;;;;;6.72;2.10;;;8.80;84.40;;;;;;5073756;28;20043;-75
2021/05/02 08:51:06;;;;;;;6.30;2.10;;;8.90;85.10;;;;;;5064753;28;20047;-74
2021/05/02 08:53:33;;;;;;;7.00;3.03;;;9.10;85.30;;;;;;5072353;28;20318;-73
2021/05/02 08:56:01;;;;;;;4.50;1.85;;;9.20;85.10;;;;;;5075733;28;20047;-74
2021/05/02 08:58:27;;;;;;;5.53;2.05;;;9.20;84.10;;;;;;5068973;28;20044;-73
2021/05/02 09:00:56;;;;;;;4.47;1.42;;;9.10;83.90;;;;;;5084472;28;20036;-74
2021/05/02 09:03:37;;;;;;;2.78;1.50;;;8.90;83.10;;;;;;5081222;28;20041;-74
2021/05/02 09:06:19;;;;;;;3.65;1.58;;;8.80;84.20;;;;;;5065161;28;20051;-73
2021/05/02 09:08:46;;;;;;;4.27;1.40;;;8.90;85.20;;;;;;5071458;28;20040;-74
2021/05/02 09:11:14;;;;;;;6.75;1.77;;;9.10;85.60;;;;;;5078961;28;20343;-76
2021/05/02 09:13:48;;;;;;;6.22;2.13;;;9.30;85.30;;;;;;5075225;28;20552;-73
2021/05/02 09:16:14;;;;;;;5.88;2.00;;;9.50;84.00;;;;;;5086270;28;20024;-74
2021/05/02 09:18:44;;;;;;;8.35;1.98;;;9.70;84.50;;;;;;5079304;28;20039;-75
2021/05/02 09:21:26;;;;;;;5.72;1.83;;;9.80;83.80;;;;;;5078298;28;20123;-74
2021/05/02 09:23:52;;;;;;;7.13;1.95;;;10.00;81.90;;;;;;5069613;28;20605;-74
2021/05/02 09:26:35;;;;;;;5.72;1.98;;;10.30;82.60;;;;;;5072920;28;20132;-74
2021/05/02 09:29:06;;;;;;;10.30;1.83;;;10.50;82.50;;;;;;5081952;28;20349;-73
2021/05/02 09:31:41;;;;;;;7.82;2.28;;;10.60;81.60;;;;;;5080514;28;20059;-74
2021/05/02 09:34:19;;;;;;;4.25;2.00;;;10.50;82.20;;;;;;5079291;28;20036;-75
2021/05/02 09:37:05;;;;;;;6.40;2.20;;;10.30;80.90;;;;;;5077630;28;20447;-74
2021/05/02 09:39:53;;;;;;;7.63;2.08;;;10.10;81.20;;;;;;5075556;28;20464;-74
2021/05/02 09:42:38;;;;;;;4.72;1.90;;;9.90;80.60;;;;;;5072846;28;20097;-74
2021/05/02 09:45:09;;;;;;;5.53;1.90;;;9.70;80.90;;;;;;5074174;28;20086;-74
2021/05/02 09:47:38;;;;;;;8.33;1.87;;;9.60;81.10;;;;;;5078920;28;20460;-74
2021/05/02 09:50:18;;;;;;;3.63;1.80;;;9.60;81.00;;;;;;5073786;28;20286;-74
2021/05/02 09:53:01;;;;;;;5.50;1.60;;;9.70;79.80;;;;;;5077667;28;20469;-73
2021/05/02 09:55:39;;;;;;;4.25;1.58;;;9.90;78.20;;;;;;5067212;28;20491;-75
2021/05/02 09:58:10;;;;;;;5.72;1.55;;;10.20;78.70;;;;;;5081529;28;20478;-75
2021/05/02 10:00:42;;;;;;;8.95;1.60;;;10.50;78.00;;;;;;5071729;28;20663;-76
2021/05/02 10:03:18;;;;;;;10.65;1.80;;;10.60;75.90;;;;;;5079672;28;20025;-74
2021/05/02 10:05:56;;;;;;;6.80;1.85;;;10.60;74.60;;;;;;5079370;28;20028;-74
2021/05/02 10:08:25;;;;;;;5.40;1.48;;;10.70;75.40;;;;;;5077759;28;20040;-74
2021/05/02 10:10:55;;;;;;;10.48;1.73;;;10.90;75.20;;;;;;5071025;28;20459;-74
2021/05/02 10:13:21;;;;;;;4.13;1.48;;;11.10;75.70;;;;;;5074103;28;20542;-74
2021/05/02 10:15:47;;;;;;;6.05;1.40;;;11.30;75.10;;;;;;5068645;28;20086;-74
2021/05/02 10:18:13;;;;;;;3.67;1.40;;;11.30;73.40;;;;;;5068794;28;21023;-75
2021/05/02 10:20:49;;;;;;;5.13;1.58;;;11.00;71.90;;;;;;5072960;28;20077;-75
2021/05/02 10:23:16;;;;;;;3.20;1.67;;;10.70;72.60;;;;;;5066341;28;20028;-75
2021/05/02 10:25:43;;;;;;;3.13;1.15;;;10.50;73.90;;;;;;5072351;28;21223;-74
2021/05/02 10:28:19;;;;;;;7.13;1.83;;;10.50;74.10;;;;;;5068647;28;20051;-76
2021/05/02 10:30:49;;;;;;;5.10;1.42;;;10.40;74.00;;;;;;5073774;28;20081;-75
2021/05/02 10:33:28;;;;;;;6.25;2.25;;;10.40;72.80;;;;;;5072045;28;20036;-74
2021/05/02 10:35:55;;;;;;;6.55;1.75;;;10.50;73.20;;;;;;5079406;28;20135;-75
2021/05/02 10:38:42;;;;;;;8.07;1.90;;;10.70;73.20;;;;;;5078056;28;20506;-75
2021/05/02 10:41:31;;;;;;;5.00;2.00;;;10.80;73.30;;;;;;5060204;28;20085;-74
2021/05/02 10:44:12;;;;;;;4.53;1.77;;;10.80;73.80;;;;;;5075129;28;20037;-74
2021/05/02 10:46:43;;;;;;;5.82;1.92;;;10.70;73.60;;;;;;5078577;28;20060;-74
2021/05/02 10:49:19;;;;;;;8.23;2.25;;;10.60;75.60;;;;;;5077688;28;20036;-74
2021/05/02 10:51:48;;;;;;;6.55;1.90;;;10.60;75.60;;;;;;5072879;28;20103;-75
2021/05/02 10:54:23;;;;;;;8.48;2.42;;;10.50;76.30;;;;;;5069875;28;20040;-74
2021/05/02 10:56:57;;;;;;;5.93;1.83;;;10.40;77.20;;;;;;5071691;28;20043;-75
2021/05/02 10:59:26;;;;;;;6.68;2.13;;;10.40;77.00;;;;;;5065354;28;20074;-74
2021/05/02 11:01:53;;;;;;;8.07;2.15;;;10.30;76.10;;;;;;5062824;28;20613;-76
2021/05/02 11:04:20;;;;;;;8.38;2.00;;;10.20;76.50;;;;;;5065182;28;20044;-74
2021/05/02 11:06:48;;;;;;;7.90;2.25;;;10.20;76.80;;;;;;5064755;28;20498;-75
2021/05/02 11:09:18;;;;;;;6.07;2.03;;;10.20;76.20;;;;;;5078866;28;20032;-76
2021/05/02 11:11:47;;;;;;;5.97;1.80;;;10.30;76.90;;;;;;5062714;28;20249;-73
2021/05/02 11:14:17;;;;;;;9.30;2.20;;;10.50;77.60;;;;;;5063008;28;20390;-76
2021/05/02 11:16:43;;;;;;;5.88;2.03;;;10.60;76.30;;;;;;5069341;28;20032;-75
2021/05/02 11:19:24;;;;;;;9.30;2.80;;;10.60;75.90;;;;;;5077838;28;20039;-74
2021/05/02 11:21:53;;;;;;;10.27;2.40;;;10.60;75.40;;;;;;5068613;28;20041;-74
2021/05/02 11:24:24;;;;;;;10.07;2.20;;;10.50;76.80;;;;;;5075491;28;20045;-74
2021/05/02 11:29:38;;;;;;;8.77;2.30;;;10.10;77.60;;;;;;5084217;28;20047;-74
2021/05/02 11:32:04;;;;;;;6.85;2.38;;;9.80;79.00;;;;;;5088491;28;20033;-76
2021/05/02 11:35:00;;;;;;;7.10;2.20;;;9.70;79.40;;;;;;5075640;28;20041;-74
2021/05/02 11:37:43;;;;;;;10.48;2.67;;;9.50;78.70;;;;;;5063544;28;20105;-76
2021/05/02 11:40:18;;;;;;;7.25;2.20;;;9.40;79.50;;;;;;5059634;28;20392;-76
2021/05/02 11:42:52;;;;;;;10.13;2.50;;;9.30;80.10;;;;;;5065061;28;20029;-75
2021/05/02 11:45:20;;;;;;;5.97;2.30;;;9.40;80.60;;;;;;5063223;28;20159;-76
2021/05/02 11:47:46;;;;;;;9.23;2.40;;;9.50;81.00;;;;;;5067042;28;20048;-75
2021/05/02 11:50:13;;;;;;;5.65;2.30;;;9.50;80.50;;;;;;5070720;28;20036;-76
2021/05/02 11:52:49;;;;;;;5.32;2.33;;;9.60;81.50;;;;;;5088113;28;20379;-74
2021/05/02 11:55:40;;;;;;;6.30;2.50;;;9.80;81.60;;;;;;5080931;28;20578;-75
2021/05/02 11:58:08;;;;;;;5.90;2.05;;;9.90;81.30;;;;;;5077421;28;20047;-75
2021/05/02 12:00:42;;;;;;;4.57;1.85;;;9.90;81.80;;;;;;5079053;28;20719;-74
2021/05/02 12:03:10;;;;;;;4.70;2.05;;;9.90;81.80;;;;;;5076611;28;20047;-74
2021/05/02 12:05:54;;;;;;;7.18;2.28;;;10.00;82.20;;;;;;5080077;28;20041;-73
2021/05/02 12:08:22;;;;;;;4.95;1.80;;;10.10;81.70;;;;;;5079133;28;20397;-74
2021/05/02 12:11:06;;;;;;;9.85;2.60;;;10.20;82.40;;;;;;5082677;28;20494;-74
2021/05/02 12:13:38;;;;;;;6.60;2.47;;;10.20;80.90;;;;;;5077247;28;20414;-75
2021/05/02 12:16:10;;;;;;;8.73;2.00;;;10.30;81.10;;;;;;5082381;28;20029;-73
2021/05/02 12:18:45;;;;;;;;;;;10.40;81.10;;;;;;5076047;28;20780;-74
2021/05/02 12:21:13;;;;;;;4.80;1.70;;;10.60;80.30;;;;;;5073765;28;20024;-75
2021/05/02 12:23:39;;;;;;;5.82;1.77;;;10.60;81.10;;;;;;5077027;28;20048;-74
2021/05/02 12:26:07;;;;;;;3.67;1.60;;;10.70;80.30;;;;;;5074923;28;20036;-75
2021/05/02 12:28:33;;;;;;;6.88;1.70;;;10.60;79.70;;;;;;5073453;28;20032;-75
2021/05/02 12:30:59;;;;;;;7.15;1.92;;;10.60;78.90;;;;;;5082581;28;20579;-75
2021/05/02 12:33:25;;;;;;;5.45;1.77;;;10.60;77.40;;;;;;5082457;28;20040;-74
2021/05/02 12:35:50;;;;;;;5.72;1.90;;;10.60;76.70;;;;;;5062226;28;20039;-74
2021/05/02 12:38:24;;;;;;;6.85;1.75;;;10.60;75.80;;;;;;5040395;28;20151;-74
2021/05/02 12:40:51;;;;;;;6.53;1.85;;;10.60;75.00;;;;;;5056810;28;20028;-76
2021/05/02 12:43:33;;;;;;;6.97;1.58;;;10.70;75.30;;;;;;5063288;28;20032;-74
2021/05/02 12:46:00;;;;;;;3.78;1.42;;;10.90;75.40;;;;;;5064036;28;20032;-73
2021/05/02 12:48:33;;;;;;;2.50;1.70;;;11.00;74.60;;;;;;5058670;28;20051;-75
2021/05/02 12:51:00;;;;;;;4.15;1.48;;;11.10;72.90;;;;;;5059042;28;20055;-76
2021/05/02 12:53:39;;;;;;;4.20;1.98;;;11.10;73.60;;;;;;5061429;28;20029;-74
2021/05/02 12:56:06;;;;;;;4.63;1.52;;;11.00;71.10;;;;;;5064864;28;20504;-74
2021/05/02 12:58:34;;;;;;;9.13;1.73;;;10.80;71.50;;;;;;5063663;28;20040;-74
2021/05/02 13:01:03;;;;;;;6.22;1.77;;;10.60;72.60;;;;;;5066157;28;20036;-74
2021/05/02 13:06:07;;;;;;;5.55;1.80;;;10.40;74.10;;;;;;5064325;28;20059;-74